Aérodrome :
LOGIN :

S'inscrire | Disclaimer

   EN    FR    IT 

 










Légende :    VFR   VFR Marginal   IFR   IFR Intensif   IFR Très Intensif
Visi : 
Plafond : 
>= 8 km
>= 3000ft
5 à 8 km
1000 à 3000 ft
1500m à 5 km
500 à 1000 ft
800 à 1500m
200 à 500 ft
< 800m
< 200 ft
Symboles :   Orages  Brouillard  Fortes neiges  Fortes précipitations  Vent > 20 kt
SIGMETs :   Divers  Orages  Givrage  Turbulence  Onde Orograph.  Cendres Volcan.







- Altitude de l'aérodrome : 46 ft
- Code IATA : SNN


EINN - Shannon

DERNIER METAR :
  • 172300Z 14001KT 5000 R24/1400U R06/1100U MIFG FEW006 BKN180 06/05 Q1025 BECMG 2000 BKN005

METARs EXPIRÉS :
  • 172230Z VRB01KT 5000 R24/1000D R06/1400D MIFG FEW006 BKN200 06/05 Q1025 BECMG 2000 BKN005
  • 172200Z VRB01KT 6000 R24/1200D R06/P1500 MIFG FEW008 BKN200 06/06 Q1025 BECMG 2000 BKN005
  • 172130Z 00000KT 8000 MIFG FEW008 BKN200 06/06 Q1025 BECMG 2000 BKN005
  • 172100Z 02001KT 9999 MIFG BKN200 07/06 Q1025 BECMG 2000 BKN005
  • 172030Z 23003KT 9999 MIFG BKN200 07/07 Q1025 BECMG 2000 BKN005

TAF TAF EINN
Valide du 17 à 18h jusqu'au 18 à 18h UTC


171700Z 1718/1818 27008KT 9999 FEW012 BKN017
BECMG 1721/1724 VRB03KT
BECMG 1800/1803 14005KT 5000 BR BKN005
TEMPO 1801/1814 0200 FG BKN001
BECMG 1812/1814 15010KT
TEMPO 1814/1818 2000 BR -DZ BKN003
Pas de NOTAMs connus pour ce terrain.



MET'MAP, la Météo Aéronautique d'un coup d'oeil ! - Copyright ORBIFLY Décembre 2007 - Disclaimer

ORBIFLY MET'MAP TEAM :

Programmation & Développement : Alexandra Zaïnal
Conception & Développement : Baudouin d'Aumeries
Co-Programmation & Développement : Marc-Olivier Méhu
Soutien technique & logistique : Manuel Goepfert

Contact : metmap@orbifly.com




SOURCES & CREDITS :

   NOAA